Time;durP1;ratioP1;P1;durP2;ratioP2;P2;SDS_P1;SDS_P2;PMS_P1;PMS_P2;Temp;Humidity;BMP_temperature;BMP_pressure;BME280_temperature;BME280_humidity;BME280_pressure;Samples;Min_cycle;Max_cycle;Signal;HPM_P1;HPM_P2
2023/05/22 00:01:06;;;;;;;11.70;7.80;;;;;;;18.19;72.64;100824.36;106382;1270;74747;-65
2023/05/22 00:03:35;;;;;;;9.90;7.50;;;;;;;18.19;72.76;100820.61;106044;1277;70543;-66
2023/05/22 00:06:02;;;;;;;8.60;7.10;;;;;;;18.18;72.71;100820.70;105305;1271;71933;-64
2023/05/22 00:08:29;;;;;;;10.30;7.30;;;;;;;18.19;72.63;100814.74;105503;1270;62991;-66
2023/05/22 00:10:56;;;;;;;8.30;7.20;;;;;;;18.18;72.68;100815.00;105221;1270;61301;-68
2023/05/22 00:13:23;;;;;;;10.20;7.80;;;;;;;18.17;72.64;100813.94;105173;1270;74776;-64
2023/05/22 00:15:49;;;;;;;9.00;7.10;;;;;;;18.16;72.73;100811.80;105776;1270;70441;-67
2023/05/22 00:18:16;;;;;;;10.10;7.20;;;;;;;18.13;72.84;100814.42;105897;1273;61363;-64
2023/05/22 00:20:45;;;;;;;8.80;7.60;;;;;;;18.11;72.82;100812.80;106423;1270;61791;-65
2023/05/22 00:23:13;;;;;;;10.30;8.00;;;;;;;18.09;72.86;100814.09;107012;1270;61316;-65
2023/05/22 00:25:41;;;;;;;9.30;7.40;;;;;;;18.07;73.01;100811.89;107770;1270;74615;-65
2023/05/22 00:28:08;;;;;;;9.60;7.60;;;;;;;18.05;73.00;100807.19;105789;1270;71185;-64
2023/05/22 00:30:35;;;;;;;9.30;7.50;;;;;;;18.03;73.13;100802.46;105811;1270;71831;-66
2023/05/22 00:33:02;;;;;;;8.50;7.10;;;;;;;18.01;73.16;100804.48;107353;1270;61493;-66
2023/05/22 00:35:29;;;;;;;9.00;7.70;;;;;;;17.99;73.16;100801.72;105968;1273;61099;-66
2023/05/22 00:37:56;;;;;;;9.70;7.00;;;;;;;17.96;73.51;100800.96;106881;1272;74773;-65
2023/05/22 00:40:23;;;;;;;9.10;7.10;;;;;;;17.95;73.45;100800.31;105343;1273;70225;-66
2023/05/22 00:42:49;;;;;;;8.20;7.30;;;;;;;17.93;73.52;100797.48;105320;1270;71270;-65
2023/05/22 00:45:16;;;;;;;9.00;7.40;;;;;;;17.92;73.47;100793.48;105274;1272;61195;-66
2023/05/22 00:47:43;;;;;;;9.30;7.30;;;;;;;17.91;73.44;100790.77;105151;1276;61277;-66
2023/05/22 00:50:10;;;;;;;8.30;6.40;;;;;;;17.90;73.45;100793.10;106032;1271;74726;-66
2023/05/22 00:52:42;;;;;;;10.20;6.90;;;;;;;17.87;73.69;100788.08;105071;1273;70171;-65
2023/05/22 00:55:11;;;;;;;10.20;6.80;;;;;;;17.86;73.49;100785.24;105975;1272;73218;-65
2023/05/22 00:57:41;;;;;;;7.60;6.70;;;;;;;17.84;73.60;100787.38;106578;1274;61348;-65
2023/05/22 01:00:12;;;;;;;9.40;6.70;;;;;;;17.82;73.69;100791.05;105461;1270;61358;-65
2023/05/22 01:02:41;;;;;;;11.30;7.50;;;;;;;17.78;73.70;100794.61;105315;1271;73170;-64
2023/05/22 01:05:11;;;;;;;7.60;6.70;;;;;;;17.74;74.04;100798.08;105443;1270;70953;-66
2023/05/22 01:07:38;;;;;;;9.50;7.00;;;;;;;17.67;74.10;100793.80;106104;1270;71387;-66
2023/05/22 01:10:06;;;;;;;8.90;6.90;;;;;;;17.65;74.18;100791.52;105854;1270;62068;-68
2023/05/22 01:12:50;;;;;;;10.20;7.30;;;;;;;17.63;74.22;100789.54;106301;1270;61256;-67
2023/05/22 01:15:51;;;;;;;8.40;7.20;;;;;;;17.62;74.31;100788.37;106675;1269;74725;-65
2023/05/22 01:18:32;;;;;;;9.00;7.20;;;;;;;17.61;74.28;100784.95;105707;1270;70447;-65
2023/05/22 01:21:05;;;;;;;9.60;7.00;;;;;;;17.59;74.28;100785.33;105452;1270;71595;-67
2023/05/22 01:23:35;;;;;;;9.20;6.80;;;;;;;17.59;74.18;100783.05;105683;1271;61234;-64
2023/05/22 01:26:23;;;;;;;7.90;6.90;;;;;;;17.57;74.26;100784.80;105638;1270;61340;-71
2023/05/22 01:29:00;;;;;;;8.70;6.70;;;;;;;17.55;74.22;100782.48;105864;1270;74841;-67
2023/05/22 01:31:30;;;;;;;10.10;6.50;;;;;;;17.52;74.18;100783.89;105709;1270;71259;-65
2023/05/22 01:34:01;;;;;;;8.40;6.70;;;;;;;17.51;74.08;100779.98;105975;1270;71525;-66
2023/05/22 01:36:33;;;;;;;8.40;7.00;;;;;;;17.49;74.11;100779.34;105402;1270;61821;-65
2023/05/22 01:39:03;;;;;;;9.50;6.70;;;;;;;17.47;74.33;100778.08;105529;1270;60467;-65
2023/05/22 01:41:31;;;;;;;8.40;6.50;;;;;;;17.46;74.13;100779.90;105960;1270;74956;-66
2023/05/22 01:43:59;;;;;;;8.80;6.30;;;;;;;17.44;74.21;100778.30;105230;1270;71357;-65
2023/05/22 01:46:27;;;;;;;7.80;6.30;;;;;;;17.42;74.14;100777.38;105809;1274;71470;-66
2023/05/22 01:48:55;;;;;;;8.30;6.10;;;;;;;17.40;74.14;100778.91;106735;1275;62129;-68
2023/05/22 01:51:57;;;;;;;8.20;6.50;;;;;;;17.37;74.28;100777.74;106287;1270;61298;-67
2023/05/22 01:54:45;;;;;;;8.50;6.90;;;;;;;17.34;74.23;100778.89;105980;1270;73976;-68
2023/05/22 01:57:20;;;;;;;8.00;6.30;;;;;;;17.32;74.25;100776.10;106314;1270;70338;-68
2023/05/22 02:00:08;;;;;;;7.40;6.50;;;;;;;17.30;74.17;100774.16;106046;1273;71823;-67
2023/05/22 02:02:38;;;;;;;8.70;7.10;;;;;;;17.29;74.19;100772.72;106102;1274;61166;-65
2023/05/22 02:05:10;;;;;;;7.20;6.50;;;;;;;17.26;74.17;100772.21;105549;1270;61301;-67
2023/05/22 02:07:39;;;;;;;8.30;6.60;;;;;;;17.21;74.33;100773.77;106713;1270;73956;-63
2023/05/22 02:10:09;;;;;;;7.00;6.30;;;;;;;17.17;74.37;100774.33;106260;1270;71464;-64
2023/05/22 02:12:36;;;;;;;10.90;6.60;;;;;;;17.12;74.53;100773.79;105676;1270;72504;-65
2023/05/22 02:15:05;;;;;;;8.90;6.80;;;;;;;17.06;74.61;100769.88;106191;1274;62225;-65
2023/05/22 02:17:39;;;;;;;9.30;6.60;;;;;;;17.00;74.85;100765.63;105446;1270;61192;-65
2023/05/22 02:20:14;;;;;;;8.60;6.60;;;;;;;16.95;74.87;100765.44;105411;1270;73494;-67
2023/05/22 02:22:43;;;;;;;9.10;6.90;;;;;;;16.90;75.08;100766.10;105604;1270;70281;-65
2023/05/22 02:25:13;;;;;;;7.80;6.40;;;;;;;16.85;75.10;100767.90;105986;1270;72948;-65
2023/05/22 02:27:45;;;;;;;7.90;6.80;;;;;;;16.80;75.33;100755.86;106025;1269;61531;-67
2023/05/22 02:30:13;;;;;;;7.50;6.70;;;;;;;16.74;75.87;100753.66;105230;1273;61304;-67
2023/05/22 02:32:41;;;;;;;8.40;6.80;;;;;;;16.70;75.65;100751.04;106385;1270;74774;-67
2023/05/22 02:35:08;;;;;;;7.50;6.60;;;;;;;16.67;75.70;100745.69;105298;1276;71805;-65
2023/05/22 02:37:36;;;;;;;9.10;6.70;;;;;;;16.64;75.71;100747.73;105040;1270;72754;-68
2023/05/22 02:40:06;;;;;;;9.00;6.70;;;;;;;16.60;75.84;100745.61;105647;1273;61748;-67
2023/05/22 02:42:33;;;;;;;8.30;6.60;;;;;;;16.56;75.87;100748.31;106680;1270;63023;-67
2023/05/22 02:45:00;;;;;;;8.40;6.80;;;;;;;16.52;75.99;100746.34;105544;1270;74346;-67
2023/05/22 02:47:27;;;;;;;8.90;6.30;;;;;;;16.48;76.28;100744.84;105604;1271;70024;-66
2023/05/22 02:49:56;;;;;;;9.60;6.70;;;;;;;16.43;76.54;100743.25;105788;1270;72373;-66
2023/05/22 02:52:23;;;;;;;9.50;7.00;;;;;;;16.40;76.40;100742.48;106597;1270;62696;-67
2023/05/22 02:54:50;;;;;;;7.80;6.60;;;;;;;16.37;76.50;100741.47;105543;1270;61290;-66
2023/05/22 02:57:17;;;;;;;7.40;6.20;;;;;;;16.34;76.60;100742.84;106055;1270;74210;-66
2023/05/22 02:59:43;;;;;;;8.50;6.70;;;;;;;16.30;76.80;100740.84;105946;1269;61211;-66
2023/05/22 03:02:11;;;;;;;8.30;6.70;;;;;;;16.27;76.89;100739.28;105830;1269;73671;-66
2023/05/22 03:04:37;;;;;;;9.60;7.10;;;;;;;16.24;76.97;100735.62;105441;1275;62481;-66
2023/05/22 03:07:05;;;;;;;7.40;6.50;;;;;;;16.21;77.02;100734.52;105900;1271;61371;-65
2023/05/22 03:09:33;;;;;;;10.60;6.90;;;;;;;16.19;77.03;100735.92;105344;1275;74816;-68
2023/05/22 03:12:01;;;;;;;9.60;7.10;;;;;;;16.16;77.16;100728.90;106024;1270;71427;-70
2023/05/22 03:14:28;;;;;;;9.60;7.20;;;;;;;16.13;77.20;100730.02;106705;1273;73031;-69
2023/05/22 03:16:55;;;;;;;8.40;6.60;;;;;;;16.10;77.32;100730.89;106863;1270;62110;-69
2023/05/22 03:19:22;;;;;;;7.70;6.40;;;;;;;16.08;77.26;100729.70;106883;1274;59797;-70
2023/05/22 03:21:49;;;;;;;8.60;6.70;;;;;;;16.07;77.19;100729.30;106700;1273;75118;-67
2023/05/22 03:24:16;;;;;;;10.30;7.20;;;;;;;16.06;77.27;100727.15;106689;1272;71352;-65
2023/05/22 03:26:43;;;;;;;9.40;7.10;;;;;;;16.05;77.29;100721.23;106851;1270;72777;-68
2023/05/22 03:29:10;;;;;;;8.20;6.50;;;;;;;16.05;77.33;100724.86;106889;1270;62036;-70
2023/05/22 03:31:37;;;;;;;9.70;6.90;;;;;;;16.03;77.54;100720.84;106645;1271;60191;-70
2023/05/22 03:34:04;;;;;;;8.50;6.40;;;;;;;16.03;77.40;100725.80;106915;1270;59775;-70
2023/05/22 03:36:34;;;;;;;9.00;6.60;;;;;;;16.04;77.43;100728.48;106619;1273;70380;-68
2023/05/22 03:39:03;;;;;;;8.50;6.30;;;;;;;16.07;77.36;100729.21;106831;1270;72362;-68
2023/05/22 03:41:29;;;;;;;8.40;6.60;;;;;;;16.09;77.20;100728.71;106686;1273;60900;-69
2023/05/22 03:43:57;;;;;;;8.20;6.10;;;;;;;16.11;77.12;100730.36;106785;1270;61252;-67
2023/05/22 03:46:24;;;;;;;7.80;6.20;;;;;;;16.15;76.88;100729.56;107864;1270;73219;-65
2023/05/22 03:48:51;;;;;;;9.70;6.00;;;;;;;16.18;76.65;100731.20;107562;1270;71176;-67
2023/05/22 03:51:18;;;;;;;8.30;6.30;;;;;;;16.22;76.53;100735.25;105560;1272;73311;-66
2023/05/22 03:53:46;;;;;;;7.70;5.90;;;;;;;16.26;76.36;100733.27;106674;1270;60608;-65
2023/05/22 03:56:13;;;;;;;8.20;6.20;;;;;;;16.29;76.21;100733.92;106291;1270;61397;-66
2023/05/22 03:58:39;;;;;;;6.60;5.80;;;;;;;16.33;76.00;100732.73;107815;1270;74890;-66
2023/05/22 04:01:08;;;;;;;9.00;6.30;;;;;;;16.37;75.80;100732.41;107836;1270;69972;-64
2023/05/22 04:03:36;;;;;;;8.40;5.90;;;;;;;16.41;75.69;100731.33;106896;1270;72590;-66
2023/05/22 04:06:04;;;;;;;10.30;6.40;;;;;;;16.45;75.58;100733.06;106851;1270;62171;-65
2023/05/22 04:08:31;;;;;;;10.30;6.50;;;;;;;16.49;75.27;100734.45;105468;1270;61326;-65
2023/05/22 04:10:58;;;;;;;7.30;5.90;;;;;;;16.53;75.23;100731.22;105526;1270;74788;-66
2023/05/22 04:13:26;;;;;;;6.90;5.90;;;;;;;16.57;74.97;100731.61;106900;1270;59478;-66
2023/05/22 04:15:53;;;;;;;7.10;5.80;;;;;;;16.59;74.82;100731.11;104964;1274;71859;-66
2023/05/22 04:18:20;;;;;;;7.90;5.90;;;;;;;16.63;74.83;100735.95;105545;1273;62070;-66
2023/05/22 04:20:47;;;;;;;7.00;6.30;;;;;;;16.66;74.77;100738.27;105679;1270;61298;-65
2023/05/22 04:23:13;;;;;;;7.90;5.60;;;;;;;16.71;74.49;100735.83;105629;1272;73503;-65
2023/05/22 04:25:40;;;;;;;7.10;6.10;;;;;;;16.76;74.32;100736.64;105238;1270;70021;-66
2023/05/22 04:28:08;;;;;;;7.60;5.60;;;;;;;16.82;74.17;100736.75;105403;1270;71806;-64
2023/05/22 04:30:36;;;;;;;7.60;6.20;;;;;;;16.86;73.91;100736.84;106636;1270;62102;-67
2023/05/22 04:33:04;;;;;;;9.00;6.20;;;;;;;16.90;73.73;100738.06;106176;1270;61403;-69
2023/05/22 04:35:31;;;;;;;7.80;5.70;;;;;;;16.93;73.68;100741.38;105636;1270;74893;-70
2023/05/22 04:38:02;;;;;;;6.70;5.70;;;;;;;16.97;73.37;100744.02;105634;1273;70127;-70
2023/05/22 04:40:32;;;;;;;7.20;5.50;;;;;;;17.03;73.33;100742.52;106468;1270;72804;-70
2023/05/22 04:43:00;;;;;;;7.40;5.70;;;;;;;17.08;73.02;100744.98;107588;1270;62230;-70
2023/05/22 04:45:27;;;;;;;10.70;5.70;;;;;;;17.15;72.78;100751.26;105592;1271;61259;-69
2023/05/22 04:47:55;;;;;;;7.10;5.90;;;;;;;17.21;72.62;100749.11;105393;1271;73937;-70
2023/05/22 04:50:22;;;;;;;8.50;6.00;;;;;;;17.28;72.60;100749.92;106721;1276;71674;-70
2023/05/22 04:52:50;;;;;;;6.40;5.60;;;;;;;17.37;72.48;100748.54;106918;1270;73158;-70
2023/05/22 04:55:17;;;;;;;7.90;6.20;;;;;;;17.47;72.22;100752.38;105448;1273;61366;-67
2023/05/22 04:57:46;;;;;;;9.50;5.80;;;;;;;17.54;71.94;100747.65;105553;1270;61278;-67
2023/05/22 05:00:14;;;;;;;7.60;5.70;;;;;;;17.60;71.82;100742.65;105668;1278;74850;-69
2023/05/22 05:02:41;;;;;;;7.80;5.60;;;;;;;17.68;71.85;100739.80;105497;1270;71765;-70
2023/05/22 05:05:09;;;;;;;7.80;5.50;;;;;;;17.77;71.61;100734.48;105524;1271;72585;-69
2023/05/22 05:07:37;;;;;;;7.70;5.50;;;;;;;17.82;71.26;100733.83;105942;1276;61300;-68
2023/05/22 05:10:05;;;;;;;8.70;5.50;;;;;;;17.87;71.06;100731.94;105624;1270;61300;-69
2023/05/22 05:12:32;;;;;;;7.50;5.50;;;;;;;17.92;70.92;100733.16;107132;1270;73052;-68
2023/05/22 05:14:58;;;;;;;6.80;5.10;;;;;;;18.01;70.89;100727.27;106012;1271;71486;-69
2023/05/22 05:17:25;;;;;;;7.70;5.80;;;;;;;18.08;70.58;100730.36;105999;1270;72580;-66
2023/05/22 05:19:52;;;;;;;6.50;5.40;;;;;;;18.14;70.58;100730.23;106489;1271;61758;-70
2023/05/22 05:22:19;;;;;;;7.70;5.40;;;;;;;18.21;70.24;100730.58;105991;1270;61256;-70
2023/05/22 05:24:46;;;;;;;7.10;5.30;;;;;;;18.29;70.22;100731.42;106531;1271;74702;-72
2023/05/22 05:27:12;;;;;;;8.30;5.30;;;;;;;18.35;69.91;100729.03;105491;1276;71337;-72
2023/05/22 05:29:40;;;;;;;7.20;5.20;;;;;;;18.42;69.69;100727.81;106432;1275;71784;-71
2023/05/22 05:32:07;;;;;;;7.10;5.60;;;;;;;18.48;69.51;100728.14;105528;1270;61395;-71
2023/05/22 05:34:33;;;;;;;7.80;5.40;;;;;;;18.52;69.18;100723.25;106547;1270;59619;-73
2023/05/22 05:37:01;;;;;;;7.80;5.20;;;;;;;18.57;69.11;100727.69;106888;1270;75391;-72
2023/05/22 05:39:28;;;;;;;8.10;5.10;;;;;;;18.65;68.78;100726.67;106930;1270;69951;-71
2023/05/22 05:41:55;;;;;;;9.10;5.30;;;;;;;18.70;68.26;100723.74;106582;1270;71420;-71
2023/05/22 05:44:22;;;;;;;8.10;5.00;;;;;;;18.74;68.15;100725.27;106896;1271;61796;-70
2023/05/22 05:46:49;;;;;;;7.10;5.30;;;;;;;18.80;67.82;100720.86;106719;1273;60088;-72
2023/05/22 05:49:18;;;;;;;6.50;5.10;;;;;;;18.88;67.77;100720.63;106648;1270;74288;-72
2023/05/22 05:51:44;;;;;;;8.00;4.90;;;;;;;18.96;67.59;100720.97;106899;1270;71228;-72
2023/05/22 05:54:11;;;;;;;7.40;5.00;;;;;;;19.04;67.01;100720.13;106715;1270;71471;-73
2023/05/22 05:56:38;;;;;;;6.10;5.10;;;;;;;19.10;66.79;100721.53;106890;1270;62149;-70
2023/05/22 05:59:05;;;;;;;7.20;4.70;;;;;;;19.16;66.61;100718.38;106893;1270;61648;-73
2023/05/22 06:01:34;;;;;;;7.00;4.90;;;;;;;19.25;66.47;100718.48;106714;1270;73814;-73
2023/05/22 06:04:02;;;;;;;8.20;5.00;;;;;;;19.30;66.13;100718.73;106697;1270;70129;-72
2023/05/22 06:06:34;;;;;;;7.70;4.70;;;;;;;19.37;66.19;100725.36;106827;1271;72222;-70
2023/05/22 06:09:05;;;;;;;6.10;4.40;;;;;;;19.45;65.96;100719.14;106845;1270;60542;-69
2023/05/22 06:11:32;;;;;;;6.70;4.30;;;;;;;19.54;65.38;100723.71;106854;1270;59422;-71
2023/05/22 06:14:05;;;;;;;8.00;4.30;;;;;;;19.65;65.07;100726.54;107449;1271;74099;-68
2023/05/22 06:16:34;;;;;;;5.80;4.30;;;;;;;19.75;64.57;100724.58;107696;1273;72379;-72
2023/05/22 06:19:03;;;;;;;7.30;4.70;;;;;;;19.84;64.72;100725.32;106728;1270;72744;-72
2023/05/22 06:21:30;;;;;;;7.00;4.90;;;;;;;19.93;64.32;100723.88;106716;1270;61961;-71
2023/05/22 06:23:57;;;;;;;7.80;4.60;;;;;;;20.01;63.83;100723.96;106977;1270;60474;-72
2023/05/22 06:26:24;;;;;;;6.90;4.30;;;;;;;20.05;62.97;100722.98;106769;1271;74266;-70
2023/05/22 06:28:52;;;;;;;6.90;4.50;;;;;;;20.06;63.04;100721.02;106744;1275;71210;-68
2023/05/22 06:31:21;;;;;;;6.40;4.50;;;;;;;20.11;63.14;100721.33;106722;1270;72838;-70
2023/05/22 06:33:48;;;;;;;6.30;4.40;;;;;;;20.19;63.17;100726.77;106842;1271;62506;-69
2023/05/22 06:36:16;;;;;;;6.70;4.10;;;;;;;20.29;62.77;100726.64;106604;1271;59844;-72
2023/05/22 06:38:44;;;;;;;7.10;4.10;;;;;;;20.41;62.54;100724.77;106591;1271;74964;-68
2023/05/22 06:41:11;;;;;;;10.30;4.40;;;;;;;20.57;62.15;100726.83;106899;1270;72416;-71
2023/05/22 06:43:38;;;;;;;5.80;4.10;;;;;;;20.65;61.63;100726.84;106936;1270;72804;-71
2023/05/22 06:46:05;;;;;;;7.00;4.20;;;;;;;20.68;61.18;100728.62;106660;1277;62712;-71
2023/05/22 06:48:34;;;;;;;4.60;3.80;;;;;;;20.73;61.01;100730.88;106710;1271;60533;-71
2023/05/22 06:51:01;;;;;;;5.70;3.90;;;;;;;20.78;60.77;100729.66;106930;1270;74828;-71
2023/05/22 06:53:28;;;;;;;11.30;4.40;;;;;;;20.81;60.89;100734.20;106702;1271;70486;-70
2023/05/22 06:55:56;;;;;;;5.50;3.80;;;;;;;20.89;60.78;100735.74;106679;1270;72841;-72
2023/05/22 06:58:22;;;;;;;7.30;4.10;;;;;;;20.98;60.52;100740.64;106904;1270;59819;-70
2023/05/22 07:00:49;;;;;;;6.90;4.00;;;;;;;21.08;59.89;100739.04;106924;1270;59621;-73
2023/05/22 07:03:16;;;;;;;6.00;4.10;;;;;;;21.18;59.66;100738.27;106622;1270;74823;-72
2023/05/22 07:05:43;;;;;;;5.70;3.80;;;;;;;21.25;59.54;100739.10;106864;1273;71309;-73
2023/05/22 07:08:10;;;;;;;6.80;3.70;;;;;;;21.29;59.20;100737.92;106876;1270;72950;-72
2023/05/22 07:10:37;;;;;;;5.40;4.00;;;;;;;21.32;58.87;100736.30;106588;1270;59520;-72
2023/05/22 07:13:04;;;;;;;6.90;3.90;;;;;;;21.41;59.04;100734.34;106951;1270;59740;-70
2023/05/22 07:15:31;;;;;;;5.90;4.40;;;;;;;21.45;58.59;100733.88;106874;1271;73053;-71
2023/05/22 07:17:57;;;;;;;7.60;4.10;;;;;;;21.51;58.85;100728.96;106655;1271;70903;-73
2023/05/22 07:20:25;;;;;;;5.70;4.00;;;;;;;21.56;58.62;100734.70;106635;1270;71973;-71
2023/05/22 07:22:51;;;;;;;7.20;3.90;;;;;;;21.63;59.02;100729.63;106938;1270;60290;-73
2023/05/22 07:25:18;;;;;;;6.20;4.10;;;;;;;21.70;58.96;100729.36;106734;1271;59582;-69
2023/05/22 07:27:45;;;;;;;5.00;3.90;;;;;;;21.84;58.89;100726.98;106943;1270;73615;-73
2023/05/22 07:30:12;;;;;;;7.20;4.30;;;;;;;21.95;58.20;100729.33;106911;1270;69714;-71
2023/05/22 07:32:39;;;;;;;6.40;4.10;;;;;;;22.02;58.16;100726.96;106894;1270;72510;-70
2023/05/22 07:35:06;;;;;;;5.60;4.10;;;;;;;22.09;57.97;100725.28;106673;1270;59921;-70
2023/05/22 07:37:34;;;;;;;7.10;4.40;;;;;;;22.09;57.53;100726.63;106913;1271;59380;-70
2023/05/22 07:40:06;;;;;;;5.00;3.70;;;;;;;22.13;57.53;100720.30;106741;1271;74837;-71
2023/05/22 07:42:33;;;;;;;5.50;4.00;;;;;;;22.20;57.71;100720.47;106903;1270;70736;-71
2023/05/22 07:45:01;;;;;;;6.90;4.20;;;;;;;22.37;58.08;100721.65;106726;1271;73973;-72
2023/05/22 07:47:28;;;;;;;5.60;4.10;;;;;;;22.44;57.01;100718.65;106572;1273;59576;-72
2023/05/22 07:49:55;;;;;;;5.90;4.00;;;;;;;22.44;56.75;100721.23;106536;1270;59236;-70
2023/05/22 07:52:22;;;;;;;6.00;4.20;;;;;;;22.49;56.84;100720.70;106895;1270;74914;-69
2023/05/22 07:54:49;;;;;;;6.30;3.90;;;;;;;22.62;56.61;100719.86;106611;1278;69765;-72
2023/05/22 07:57:16;;;;;;;5.00;4.10;;;;;;;22.80;56.73;100719.84;106599;1270;72753;-71
2023/05/22 07:59:43;;;;;;;5.10;3.70;;;;;;;22.97;56.44;100722.77;106653;1276;60566;-71
2023/05/22 08:02:10;;;;;;;6.60;4.20;;;;;;;23.12;55.93;100720.30;106889;1271;61184;-71
2023/05/22 08:04:37;;;;;;;5.70;4.10;;;;;;;23.31;55.99;100722.77;106603;1271;75942;-70
2023/05/22 08:07:04;;;;;;;5.80;4.40;;;;;;;23.46;55.08;100720.25;106556;1278;71152;-71
2023/05/22 08:09:31;;;;;;;6.40;4.10;;;;;;;23.60;54.93;100722.23;106525;1278;72268;-71
2023/05/22 08:11:58;;;;;;;5.80;4.20;;;;;;;23.73;55.09;100723.99;106868;1270;61256;-74
2023/05/22 08:14:24;;;;;;;6.10;4.00;;;;;;;23.82;54.54;100720.98;106672;1271;59969;-70
2023/05/22 08:16:51;;;;;;;6.30;4.10;;;;;;;23.81;54.00;100717.61;106566;1270;75867;-70
2023/05/22 08:19:19;;;;;;;6.60;4.10;;;;;;;23.80;53.87;100717.55;106657;1270;71114;-67
2023/05/22 08:21:46;;;;;;;6.10;4.20;;;;;;;23.84;54.37;100722.02;106885;1271;71904;-71
2023/05/22 08:24:12;;;;;;;7.20;4.10;;;;;;;23.98;54.82;100718.25;106663;1270;373248;-69
2023/05/22 08:26:40;;;;;;;5.80;4.10;;;;;;;24.14;54.16;100718.64;106511;1272;59786;-72
2023/05/22 08:29:06;;;;;;;5.70;4.20;;;;;;;24.28;53.77;100718.80;106645;1270;75226;-71
2023/05/22 08:31:34;;;;;;;7.50;4.30;;;;;;;24.38;53.48;100715.41;106651;1271;72071;-68
2023/05/22 08:34:02;;;;;;;7.80;4.00;;;;;;;24.49;53.16;100713.67;106805;1271;72694;-71
2023/05/22 08:36:32;;;;;;;5.00;3.70;;;;;;;24.58;52.88;100713.65;106774;1276;60086;-71
2023/05/22 08:39:00;;;;;;;5.60;4.00;;;;;;;24.63;52.17;100710.09;106801;1270;60058;-73
2023/05/22 08:41:28;;;;;;;6.60;4.20;;;;;;;24.70;52.37;100707.81;106818;1270;75384;-72
2023/05/22 08:43:55;;;;;;;7.30;4.10;;;;;;;24.80;52.72;100703.65;106864;1271;70692;-72
2023/05/22 08:46:25;;;;;;;8.20;4.10;;;;;;;24.91;52.39;100704.64;106781;1270;71125;-70
2023/05/22 08:48:55;;;;;;;6.20;3.90;;;;;;;25.03;51.57;100701.77;106830;1271;59754;-71
2023/05/22 08:51:31;;;;;;;6.80;4.10;;;;;;;25.07;51.48;100700.73;106803;1276;60372;-72
2023/05/22 08:53:59;;;;;;;5.50;4.10;;;;;;;25.17;51.19;100695.97;106823;1271;75255;-71
2023/05/22 08:56:27;;;;;;;5.20;3.60;;;;;;;25.33;51.12;100695.70;106777;1271;70790;-73
2023/05/22 08:58:57;;;;;;;13.20;4.10;;;;;;;25.45;50.96;100695.40;106809;1271;72518;-72
2023/05/22 09:01:24;;;;;;;5.30;3.90;;;;;;;25.47;50.10;100693.73;106219;1270;60479;-73
2023/05/22 09:03:51;;;;;;;4.90;4.10;;;;;;;25.53;50.57;100691.41;106375;1270;60204;-71
2023/05/22 09:06:18;;;;;;;7.40;4.50;;;;;;;25.68;50.14;100688.67;106374;1276;74334;-72
2023/05/22 09:08:45;;;;;;;7.10;4.10;;;;;;;25.85;49.93;100685.58;106203;1271;70959;-71
2023/05/22 09:11:12;;;;;;;5.90;4.20;;;;;;;26.00;49.98;100687.23;106368;1271;60103;-71
2023/05/22 09:13:40;;;;;;;6.30;4.00;;;;;;;26.17;49.11;100690.20;106410;1275;60523;-72
2023/05/22 09:16:11;;;;;;;6.30;4.70;;;;;;;26.18;48.08;100691.65;106597;1270;62006;-73
2023/05/22 09:18:39;;;;;;;5.40;3.90;;;;;;;26.16;48.62;100690.20;106209;1276;75065;-73
2023/05/22 09:21:06;;;;;;;5.80;4.20;;;;;;;26.13;48.33;100687.00;106407;1271;70789;-72
2023/05/22 09:23:53;;;;;;;6.50;4.20;;;;;;;26.21;48.31;100687.73;106186;1276;72287;-73
2023/05/22 09:26:20;;;;;;;6.80;3.70;;;;;;;26.24;48.14;100683.91;106287;1271;59695;-70
2023/05/22 09:28:47;;;;;;;4.90;3.70;;;;;;;26.27;47.67;100684.16;106376;1271;59379;-72
2023/05/22 09:31:13;;;;;;;5.90;3.80;;;;;;;26.30;47.26;100682.84;105970;1279;75710;-70
2023/05/22 09:33:42;;;;;;;7.10;4.10;;;;;;;26.23;47.43;100676.56;106392;1273;71191;-68
2023/05/22 09:36:10;;;;;;;5.90;4.10;;;;;;;26.28;47.91;100674.46;106399;1275;73817;-73
2023/05/22 09:38:38;;;;;;;6.70;4.10;;;;;;;26.35;47.48;100675.95;106161;1273;60733;-73
2023/05/22 09:41:05;;;;;;;5.00;3.70;;;;;;;26.47;47.56;100674.80;106401;1270;59943;-72
2023/05/22 09:43:32;;;;;;;6.20;3.60;;;;;;;26.57;47.24;100668.38;106193;1274;76777;-73
2023/05/22 09:46:00;;;;;;;5.50;4.00;;;;;;;26.61;46.52;100671.90;106397;1275;70087;-72
2023/05/22 09:48:27;;;;;;;5.90;3.70;;;;;;;26.83;46.92;100674.45;106180;1270;72399;-72
2023/05/22 09:50:58;;;;;;;7.10;4.20;;;;;;;27.07;46.44;100671.16;106437;1270;61024;-69
2023/05/22 09:53:29;;;;;;;9.00;3.90;;;;;;;27.20;46.17;100667.40;106496;1270;60107;-70
2023/05/22 09:55:59;;;;;;;7.20;3.90;;;;;;;27.35;45.61;100667.92;106487;1271;74767;-71
2023/05/22 09:58:29;;;;;;;4.30;3.90;;;;;;;27.45;45.17;100668.15;106430;1271;71806;-73
2023/05/22 10:00:58;;;;;;;6.40;3.90;;;;;;;27.51;45.33;100666.92;106343;1271;71374;-73
2023/05/22 10:03:26;;;;;;;7.80;4.00;;;;;;;27.48;45.36;100673.78;106336;1276;60559;-72
2023/05/22 10:05:57;;;;;;;5.20;3.90;;;;;;;27.44;45.06;100668.11;106346;1271;59648;-71
2023/05/22 10:08:27;;;;;;;4.60;3.60;;;;;;;27.48;45.45;100669.59;106583;1270;74141;-71
2023/05/22 10:10:54;;;;;;;4.50;3.80;;;;;;;27.53;45.08;100667.47;106558;1271;70990;-72
2023/05/22 10:13:22;;;;;;;8.70;4.00;;;;;;;27.52;45.01;100668.73;106578;1277;71351;-70
2023/05/22 10:15:50;;;;;;;5.90;3.70;;;;;;;27.60;45.28;100667.32;106581;1271;59780;-71
2023/05/22 10:18:17;;;;;;;5.90;3.80;;;;;;;27.75;45.03;100664.38;106573;1275;59591;-70
2023/05/22 10:20:47;;;;;;;4.90;4.00;;;;;;;27.96;44.43;100660.76;106550;1271;76153;-72
2023/05/22 10:23:17;;;;;;;6.30;3.40;;;;;;;28.09;44.22;100655.36;106568;1270;70951;-73
2023/05/22 10:25:44;;;;;;;7.30;4.00;;;;;;;28.22;44.75;100658.19;106565;1271;71470;-72
2023/05/22 10:28:19;;;;;;;5.80;3.60;;;;;;;28.36;44.59;100646.45;106516;1271;60613;-71
2023/05/22 10:30:54;;;;;;;5.60;3.80;;;;;;;28.40;43.34;100646.95;106245;1271;63505;-72
2023/05/22 10:33:29;;;;;;;5.40;3.80;;;;;;;28.58;43.89;100644.56;106615;1270;75689;-72
2023/05/22 10:36:12;;;;;;;4.70;3.60;;;;;;;28.75;43.66;100639.01;106521;1270;71683;-74
2023/05/22 10:38:57;;;;;;;5.40;3.60;;;;;;;28.94;43.03;100638.42;106482;1271;74733;-74
2023/05/22 10:41:25;;;;;;;4.90;3.70;;;;;;;28.97;41.82;100636.01;106447;1271;59878;-72
2023/05/22 10:43:55;;;;;;;6.60;4.30;;;;;;;29.08;41.59;100631.25;106517;1271;60409;-74
2023/05/22 10:46:22;;;;;;;7.00;4.20;;;;;;;29.11;41.63;100621.48;106487;1270;74610;-73
2023/05/22 10:48:51;;;;;;;5.10;3.40;;;;;;;29.24;41.98;100624.14;106154;1279;72520;-74
2023/05/22 10:51:20;;;;;;;6.40;3.70;;;;;;;29.17;41.04;100625.84;106437;1275;72840;-73
2023/05/22 10:54:04;;;;;;;6.20;3.90;;;;;;;29.15;41.08;100623.55;106406;1270;60813;-72
2023/05/22 10:56:36;;;;;;;5.30;4.10;;;;;;;29.35;41.85;100627.48;106531;1276;59751;-73
2023/05/22 10:59:06;;;;;;;8.50;3.70;;;;;;;29.51;42.09;100623.34;106486;1271;74591;-71
2023/05/22 11:01:35;;;;;;;6.30;4.00;;;;;;;29.57;41.64;100623.73;106435;1271;70641;-73
2023/05/22 11:04:07;;;;;;;4.80;3.50;;;;;;;29.69;41.52;100626.86;106136;1271;72574;-71
2023/05/22 11:06:47;;;;;;;5.80;3.70;;;;;;;29.85;41.59;100625.61;105683;1274;61323;-71
2023/05/22 11:09:31;;;;;;;4.80;3.50;;;;;;;29.97;41.17;100624.20;105837;1276;61410;-66
2023/05/22 11:12:12;;;;;;;5.50;3.60;;;;;;;29.89;40.30;100627.22;106274;1271;75175;-66
2023/05/22 11:14:39;;;;;;;5.80;3.50;;;;;;;29.73;40.02;100624.05;105738;1271;71603;-67
2023/05/22 11:17:05;;;;;;;4.40;3.60;;;;;;;29.57;40.26;100625.34;105275;1274;72627;-64
2023/05/22 11:19:33;;;;;;;6.10;3.50;;;;;;;29.44;40.56;100617.50;105617;1275;61318;-70
2023/05/22 11:22:01;;;;;;;6.80;4.20;;;;;;;29.55;40.87;100618.89;105532;1270;61272;-68
2023/05/22 11:24:33;;;;;;;6.20;4.00;;;;;;;29.64;40.54;100615.80;105681;1273;74278;-64